createdAt,value
2022-10-01T00:01:20.110Z,97463.06
2022-10-01T00:03:50.589Z,97457.84
2022-10-01T00:06:20.554Z,97463.31
2022-10-01T00:08:49.690Z,97461.69
2022-10-01T00:11:18.642Z,97465.63
2022-10-01T00:13:46.462Z,97462.16
2022-10-01T00:16:16.917Z,97468.28
2022-10-01T00:18:45.969Z,97457.66
2022-10-01T00:21:17.603Z,97463.16
2022-10-01T00:23:46.190Z,97467.13
2022-10-01T00:26:18.180Z,97463.63
2022-10-01T00:28:47.538Z,97460.97
2022-10-01T00:31:16.009Z,97460.50
2022-10-01T00:33:43.592Z,97460.91
2022-10-01T00:36:11.592Z,97455.78
2022-10-01T00:38:40.809Z,97452.78
2022-10-01T00:41:10.172Z,97447.31
2022-10-01T00:43:44.140Z,97447.63
2022-10-01T00:46:18.498Z,97447.69
2022-10-01T00:49:10.452Z,97446.47
2022-10-01T00:51:49.882Z,97444.03
2022-10-01T00:54:24.861Z,97442.75
2022-10-01T00:56:56.137Z,97441.56
2022-10-01T00:59:24.376Z,97442.47
2022-10-01T01:01:52.423Z,97444.81
2022-10-01T01:04:19.952Z,97434.19
2022-10-01T01:06:57.946Z,97440.97
2022-10-01T01:09:30.697Z,97444.47
2022-10-01T01:11:58.182Z,97443.88
2022-10-01T01:15:07.751Z,97437.97
2022-10-01T01:17:47.422Z,97432.53
2022-10-01T01:20:35.114Z,97434.50
2022-10-01T01:23:14.738Z,97431.84
2022-10-01T01:26:00.597Z,97424.91
2022-10-01T01:28:35.132Z,97417.31
2022-10-01T01:31:10.509Z,97418.91
2022-10-01T01:33:40.642Z,97412.78
2022-10-01T01:36:15.986Z,97412.19
2022-10-01T01:38:49.520Z,97412.09
2022-10-01T01:41:20.312Z,97409.72
2022-10-01T01:43:52.073Z,97414.53
2022-10-01T01:46:21.198Z,97414.44
2022-10-01T01:48:53.389Z,97413.03
2022-10-01T01:51:28.008Z,97405.84
2022-10-01T01:53:55.530Z,97406.31
2022-10-01T01:56:23.451Z,97401.09
2022-10-01T01:58:54.064Z,97401.88
2022-10-01T02:01:34.882Z,97400.03
2022-10-01T02:04:05.792Z,97396.72
2022-10-01T02:06:53.832Z,97393.38
2022-10-01T02:09:31.338Z,97400.53
2022-10-01T02:12:27.926Z,97397.66
2022-10-01T02:15:06.461Z,97391.53
2022-10-01T02:17:57.771Z,97386.66
2022-10-01T02:20:36.212Z,97390.38
2022-10-01T02:23:10.361Z,97384.25
2022-10-01T02:25:45.021Z,97384.91
2022-10-01T02:28:17.119Z,97382.50
2022-10-01T02:30:46.765Z,97385.50
2022-10-01T02:33:17.879Z,97384.69
2022-10-01T02:35:48.256Z,97383.44
2022-10-01T02:38:18.170Z,97381.59
2022-10-01T02:40:47.539Z,97373.84
2022-10-01T02:43:19.396Z,97377.53
2022-10-01T02:45:53.651Z,97377.53
2022-10-01T02:48:21.619Z,97378.00
2022-10-01T02:50:52.820Z,97375.53
2022-10-01T02:53:26.239Z,97371.19
2022-10-01T02:55:56.451Z,97364.47
2022-10-01T02:58:24.091Z,97369.94
2022-10-01T03:00:53.211Z,97368.31
2022-10-01T03:03:20.626Z,97373.63
2022-10-01T03:05:48.129Z,97365.06
2022-10-01T03:08:15.545Z,97370.28
2022-10-01T03:10:46.636Z,97366.03
2022-10-01T03:13:14.980Z,97360.47
2022-10-01T03:15:42.577Z,97357.25
2022-10-01T03:18:10.095Z,97355.25
2022-10-01T03:20:37.629Z,97358.94
2022-10-01T03:23:05.148Z,97352.59
2022-10-01T03:25:32.588Z,97360.56
2022-10-01T03:28:00.091Z,97353.19
2022-10-01T03:30:27.698Z,97359.31
2022-10-01T03:32:55.208Z,97364.41
2022-10-01T03:35:25.064Z,97357.69
2022-10-01T03:37:53.175Z,97355.03
2022-10-01T03:40:20.578Z,97350.53
2022-10-01T03:42:47.973Z,97348.13
2022-10-01T03:45:15.629Z,97350.59
2022-10-01T03:47:43.089Z,97338.69
2022-10-01T03:50:10.979Z,97336.84
2022-10-01T03:52:38.436Z,97339.25
2022-10-01T03:55:06.398Z,97331.09
2022-10-01T03:57:33.858Z,97333.50
2022-10-01T04:00:01.860Z,97337.56
2022-10-01T04:02:38.892Z,97340.34
2022-10-01T04:05:06.659Z,97333.19
2022-10-01T04:07:34.107Z,97337.00
2022-10-01T04:10:01.673Z,97335.06
2022-10-01T04:12:29.144Z,97336.34
2022-10-01T04:14:56.610Z,97331.56
2022-10-01T04:17:24.067Z,97335.28
2022-10-01T04:19:51.495Z,97332.63
2022-10-01T04:22:19.079Z,97338.19
2022-10-01T04:24:46.495Z,97326.97
2022-10-01T04:27:14.010Z,97325.91
2022-10-01T04:29:41.508Z,97319.00
2022-10-01T04:32:08.958Z,97311.63
2022-10-01T04:34:54.818Z,97311.97
2022-10-01T04:37:23.521Z,97303.78
2022-10-01T04:39:51.159Z,97303.78
2022-10-01T04:42:18.661Z,97308.13
2022-10-01T04:44:46.099Z,97308.72
2022-10-01T04:47:13.867Z,97310.78
2022-10-01T04:49:41.309Z,97310.94
2022-10-01T04:52:08.840Z,97298.47
2022-10-01T04:54:36.348Z,97308.75
2022-10-01T04:57:03.977Z,97309.47
2022-10-01T04:59:32.013Z,97302.88
2022-10-01T05:01:59.636Z,97304.50
2022-10-01T05:04:27.717Z,97302.41
2022-10-01T05:06:56.397Z,97294.09
2022-10-01T05:09:23.969Z,97301.84
2022-10-01T05:11:52.242Z,97295.63
2022-10-01T05:14:20.895Z,97294.44
2022-10-01T05:16:48.474Z,97300.78
2022-10-01T05:19:16.344Z,97302.13
2022-10-01T05:21:43.889Z,97291.06
2022-10-01T05:24:11.558Z,97298.03
2022-10-01T05:26:39.110Z,97296.31
2022-10-01T05:29:06.940Z,97294.63
2022-10-01T05:31:34.900Z,97288.84
2022-10-01T05:34:02.734Z,97289.84
2022-10-01T05:36:30.237Z,97291.03
2022-10-01T05:38:57.686Z,97288.59
2022-10-01T05:41:25.198Z,97290.00
2022-10-01T05:43:53.087Z,97285.19
2022-10-01T05:46:20.634Z,97284.28
2022-10-01T05:48:51.535Z,97276.53
2022-10-01T05:51:19.068Z,97277.94
2022-10-01T05:53:50.423Z,97269.81
2022-10-01T05:56:18.113Z,97271.88
2022-10-01T05:58:46.934Z,97277.72
2022-10-01T06:01:14.536Z,97278.28
2022-10-01T06:03:42.986Z,97285.94
2022-10-01T06:06:10.627Z,97282.28
2022-10-01T06:08:38.358Z,97280.81
2022-10-01T06:11:06.233Z,97270.25
2022-10-01T06:13:35.962Z,97274.31
2022-10-01T06:16:03.533Z,97268.56
2022-10-01T06:18:31.087Z,97263.97
2022-10-01T06:20:59.904Z,97266.13
2022-10-01T06:23:28.038Z,97261.06
2022-10-01T06:25:55.555Z,97255.41
2022-10-01T06:28:23.065Z,97256.22
2022-10-01T06:30:50.578Z,97252.16
2022-10-01T06:33:18.473Z,97241.59
2022-10-01T06:35:51.265Z,97245.47
2022-10-01T06:38:20.637Z,97239.47
2022-10-01T06:40:59.952Z,97240.41
2022-10-01T06:43:29.347Z,97245.66
2022-10-01T06:45:57.744Z,97247.13
2022-10-01T06:48:25.314Z,97246.41
2022-10-01T06:50:53.217Z,97247.50
2022-10-01T06:53:21.117Z,97246.72
2022-10-01T06:55:50.072Z,97240.91
2022-10-01T06:58:20.307Z,97242.47
2022-10-01T07:00:49.219Z,97229.88
2022-10-01T07:03:20.104Z,97230.44
2022-10-01T07:05:50.040Z,97227.06
2022-10-01T07:08:18.209Z,97223.38
2022-10-01T07:10:45.947Z,97218.72
2022-10-01T07:13:18.656Z,97223.69
2022-10-01T07:15:46.692Z,97213.19
2022-10-01T07:18:14.605Z,97207.53
2022-10-01T07:20:42.353Z,97206.53
2022-10-01T07:23:15.388Z,97203.44
2022-10-01T07:25:43.859Z,97194.75
2022-10-01T07:28:18.455Z,97192.38
2022-10-01T07:30:57.232Z,97197.22
2022-10-01T07:33:24.866Z,97188.97
2022-10-01T07:35:52.397Z,97189.72
2022-10-01T07:38:19.897Z,97192.16
2022-10-01T07:40:52.195Z,97183.88
2022-10-01T07:43:19.617Z,97185.69
2022-10-01T07:45:50.319Z,97188.69
2022-10-01T07:48:19.396Z,97186.53
2022-10-01T07:50:47.452Z,97190.47
2022-10-01T07:53:15.289Z,97194.19
2022-10-01T07:55:45.316Z,97189.63
2022-10-01T07:58:13.334Z,97184.97
2022-10-01T08:00:40.912Z,97186.06
2022-10-01T08:03:12.232Z,97180.22
2022-10-01T08:05:41.334Z,97180.66
2022-10-01T08:08:09.156Z,97179.66
2022-10-01T08:10:38.625Z,97183.56
2022-10-01T08:13:14.567Z,97175.63
2022-10-01T08:15:44.172Z,97163.09
2022-10-01T08:18:12.796Z,97169.81
2022-10-01T08:20:41.003Z,97164.34
2022-10-01T08:23:11.167Z,97162.53
2022-10-01T08:25:39.925Z,97169.22
2022-10-01T08:28:09.670Z,97162.41
2022-10-01T08:30:42.054Z,97170.03
2022-10-01T08:33:14.345Z,97165.44
2022-10-01T08:35:43.788Z,97169.81
2022-10-01T08:38:12.514Z,97164.28
2022-10-01T08:40:51.248Z,97161.94
2022-10-01T08:43:32.286Z,97162.03
2022-10-01T08:46:18.772Z,97157.63
2022-10-01T08:49:35.451Z,97154.50
2022-10-01T08:52:11.507Z,97150.88
2022-10-01T08:54:59.652Z,97140.03
2022-10-01T08:57:53.695Z,97135.88
2022-10-01T09:00:21.613Z,97132.50
2022-10-01T09:02:49.735Z,97128.09
2022-10-01T09:05:25.194Z,97129.84
2022-10-01T09:08:15.473Z,97116.25
2022-10-01T09:11:12.032Z,97116.94
2022-10-01T09:13:54.785Z,97114.97
2022-10-01T09:16:27.699Z,97105.50
2022-10-01T09:19:00.925Z,97098.13
2022-10-01T09:21:48.055Z,97093.41
2022-10-01T09:24:25.045Z,97094.81
2022-10-01T09:26:52.554Z,97086.84
2022-10-01T09:29:39.615Z,97086.34
2022-10-01T09:32:07.475Z,97080.19
2022-10-01T09:34:40.230Z,97083.41
2022-10-01T09:37:30.495Z,97071.28
2022-10-01T09:40:23.890Z,97065.06
2022-10-01T09:42:52.131Z,97061.28
2022-10-01T09:45:20.940Z,97055.34
2022-10-01T09:47:54.154Z,97044.16
2022-10-01T09:50:39.663Z,97046.38
2022-10-01T09:53:18.344Z,97041.53
2022-10-01T09:55:56.393Z,97039.13
2022-10-01T09:58:29.477Z,97035.13
2022-10-01T10:00:57.617Z,97032.47
2022-10-01T10:03:30.413Z,97036.41
2022-10-01T10:06:01.889Z,97037.75
2022-10-01T10:08:36.654Z,97025.47
2022-10-01T10:11:10.735Z,97024.84
2022-10-01T10:13:50.012Z,97024.06
2022-10-01T10:16:17.465Z,97013.41
2022-10-01T10:18:52.489Z,97017.22
2022-10-01T10:21:38.054Z,97016.69
2022-10-01T10:24:19.952Z,97010.03
2022-10-01T10:26:55.314Z,97012.38
2022-10-01T10:29:35.014Z,97018.56
2022-10-01T10:32:30.264Z,97016.13
2022-10-01T10:35:05.259Z,97028.47
2022-10-01T10:37:37.545Z,97027.31
2022-10-01T10:40:08.394Z,97021.34
2022-10-01T10:42:38.889Z,97021.78
2022-10-01T10:45:17.661Z,97019.47
2022-10-01T10:47:48.364Z,97018.13
2022-10-01T10:50:30.043Z,97014.66
2022-10-01T10:52:57.974Z,97011.75
2022-10-01T10:55:31.293Z,97003.16
2022-10-01T10:58:17.718Z,97002.09
2022-10-01T11:05:14.465Z,97010.09
2022-10-01T11:07:44.545Z,97009.06
2022-10-01T11:10:21.464Z,97001.78
2022-10-01T11:13:17.455Z,97000.38
2022-10-01T11:16:03.331Z,96999.75
2022-10-01T11:18:51.701Z,97000.97
2022-10-01T11:21:37.704Z,96999.88
2022-10-01T11:24:33.094Z,97000.59
2022-10-01T11:27:14.295Z,96993.63
2022-10-01T11:30:01.614Z,96992.50
2022-10-01T11:32:39.731Z,96984.50
2022-10-01T11:35:29.177Z,96983.84
2022-10-01T11:38:26.023Z,96985.44
2022-10-01T11:41:06.085Z,96989.06
2022-10-01T11:43:42.523Z,96974.28
2022-10-01T11:46:25.138Z,96972.59
2022-10-01T11:49:02.622Z,96969.56
2022-10-01T11:51:39.494Z,96971.06
2022-10-01T11:54:12.493Z,96978.44
2022-10-01T11:57:07.839Z,96982.16
2022-10-01T11:59:41.593Z,96980.50
2022-10-01T12:02:25.397Z,96978.50
2022-10-01T12:04:58.693Z,96979.06
2022-10-01T12:07:30.235Z,96986.97
2022-10-01T12:10:33.430Z,96999.44
2022-10-01T12:13:16.505Z,96991.25
2022-10-01T12:15:53.900Z,96996.88
2022-10-01T12:18:40.382Z,97002.94
2022-10-01T12:21:32.372Z,96996.81
2022-10-01T12:24:13.254Z,97001.44
2022-10-01T12:26:46.373Z,96994.31
2022-10-01T12:29:48.433Z,96997.25
2022-10-01T12:32:18.775Z,96998.09
2022-10-01T12:35:19.803Z,97002.09
2022-10-01T12:38:06.652Z,96999.72
2022-10-01T12:40:49.403Z,96989.50
2022-10-01T12:43:16.834Z,96976.47
2022-10-01T12:46:13.647Z,96981.13
2022-10-01T12:49:04.513Z,96980.09
2022-10-01T12:51:43.218Z,96976.44
2022-10-01T12:54:44.192Z,96955.16
2022-10-01T12:57:24.782Z,96960.00
2022-10-01T13:00:18.232Z,96951.41
2022-10-01T13:03:12.991Z,96946.63
2022-10-01T13:05:58.862Z,96936.28
2022-10-01T13:08:45.083Z,96927.38
2022-10-01T13:11:37.599Z,96926.34
2022-10-01T13:14:09.302Z,96924.81
2022-10-01T13:16:54.631Z,96914.28
2022-10-01T13:19:40.508Z,96916.47
2022-10-01T13:22:41.451Z,96929.34
2022-10-01T13:25:33.330Z,96934.91
2022-10-01T13:28:13.263Z,96927.97
2022-10-01T13:30:53.076Z,96937.56
2022-10-01T13:33:29.721Z,96932.50
2022-10-01T13:36:00.524Z,96932.50
2022-10-01T13:38:47.687Z,96939.25
2022-10-01T13:41:23.048Z,96950.22
2022-10-01T13:44:09.171Z,96944.97
2022-10-01T13:46:52.332Z,96944.66
2022-10-01T13:49:31.836Z,96950.16
2022-10-01T13:51:59.630Z,96946.13
2022-10-01T13:54:44.188Z,96947.25
2022-10-01T13:57:36.325Z,96950.59
2022-10-01T14:00:12.951Z,96943.47
2022-10-01T14:02:57.753Z,96945.38
2022-10-01T14:05:57.304Z,96943.78
2022-10-01T14:08:31.362Z,96947.88
2022-10-01T14:11:27.403Z,96950.06
2022-10-01T14:14:16.762Z,96946.66
2022-10-01T14:16:47.272Z,96947.44
2022-10-01T14:19:20.032Z,96946.22
2022-10-01T14:22:01.603Z,96935.84
2022-10-01T14:24:38.242Z,96939.53
2022-10-01T14:27:13.073Z,96935.53
2022-10-01T14:30:02.241Z,96936.94
2022-10-01T14:32:51.182Z,96940.97
2022-10-01T14:35:32.623Z,96933.31
2022-10-01T14:38:03.481Z,96932.00
2022-10-01T14:40:42.891Z,96936.81
2022-10-01T14:43:22.200Z,96937.06
2022-10-01T14:45:57.087Z,96930.50
2022-10-01T14:48:26.352Z,96932.75
2022-10-01T14:50:57.661Z,96933.31
2022-10-01T14:53:27.671Z,96926.72
2022-10-01T14:55:59.754Z,96928.66
2022-10-01T14:58:39.177Z,96931.34
2022-10-01T15:01:07.352Z,96925.91
2022-10-01T15:03:44.219Z,96925.63
2022-10-01T15:06:14.856Z,96930.69
2022-10-01T15:08:44.955Z,96919.50
2022-10-01T15:11:17.360Z,96925.97
2022-10-01T15:13:47.912Z,96925.78
2022-10-01T15:16:21.276Z,96919.13
2022-10-01T15:18:55.967Z,96920.28
2022-10-01T15:21:32.221Z,96918.94
2022-10-01T15:23:59.967Z,96926.09
2022-10-01T15:26:28.281Z,96920.25
2022-10-01T15:29:07.156Z,96928.44
2022-10-01T15:31:35.078Z,96932.75
2022-10-01T15:34:04.970Z,96937.53
2022-10-01T15:36:34.544Z,96936.13
2022-10-01T15:39:04.756Z,96927.00
2022-10-01T15:41:34.042Z,96926.53
2022-10-01T15:44:05.170Z,96928.63
2022-10-01T15:46:35.373Z,96936.03
2022-10-01T15:49:15.036Z,96933.69
2022-10-01T15:52:10.810Z,96924.59
2022-10-01T15:54:41.951Z,96921.13
2022-10-01T15:57:15.929Z,96928.03
2022-10-01T15:59:43.652Z,96936.59
2022-10-01T16:02:24.887Z,96933.69
2022-10-01T16:04:56.170Z,96934.44
2022-10-01T16:07:34.152Z,96930.59
2022-10-01T16:10:28.181Z,96935.34
2022-10-01T16:12:55.828Z,96939.50
2022-10-01T16:15:27.639Z,96940.50
2022-10-01T16:17:57.602Z,96945.50
2022-10-01T16:20:50.506Z,96953.13
2022-10-01T16:23:40.600Z,96953.38
2022-10-01T16:26:29.995Z,96956.00
2022-10-01T16:29:01.582Z,96958.38
2022-10-01T16:31:30.340Z,96974.38
2022-10-01T16:33:58.522Z,96965.53
2022-10-01T16:36:26.471Z,96975.56
2022-10-01T16:38:53.956Z,96981.09
2022-10-01T16:41:24.737Z,96990.66
2022-10-01T16:43:56.272Z,96976.75
2022-10-01T16:46:23.827Z,96987.41
2022-10-01T16:48:51.958Z,96985.75
2022-10-01T16:51:21.588Z,96987.63
2022-10-01T16:53:49.360Z,96986.00
2022-10-01T16:56:16.956Z,96996.09
2022-10-01T16:58:45.215Z,96988.13
2022-10-01T17:01:15.075Z,96998.44
2022-10-01T17:03:42.600Z,96997.63
2022-10-01T17:06:10.160Z,96997.31
2022-10-01T17:08:37.665Z,96993.59
2022-10-01T17:11:06.929Z,96998.44
2022-10-01T17:13:37.070Z,97003.59
2022-10-01T17:16:07.368Z,97003.03
2022-10-01T17:18:34.898Z,96992.94
2022-10-01T17:21:04.338Z,96989.47
2022-10-01T17:23:31.797Z,97013.19
2022-10-01T17:25:59.288Z,97008.25
2022-10-01T17:28:26.884Z,97013.56
2022-10-01T17:30:54.405Z,97019.91
2022-10-01T17:33:22.629Z,97024.44
2022-10-01T17:35:55.749Z,97018.34
2022-10-01T17:38:23.656Z,97022.06
2022-10-01T17:40:56.361Z,97034.09
2022-10-01T17:43:24.583Z,97025.13
2022-10-01T17:45:57.283Z,97044.38
2022-10-01T17:48:28.714Z,97035.34
2022-10-01T17:51:07.689Z,97034.16
2022-10-01T17:53:42.116Z,97036.56
2022-10-01T17:56:14.676Z,97040.84
2022-10-01T17:58:45.215Z,97041.16
2022-10-01T18:01:16.343Z,97041.72
2022-10-01T18:03:43.937Z,97046.00
2022-10-01T18:06:16.137Z,97058.63
2022-10-01T18:08:55.186Z,97050.13
2022-10-01T18:11:25.870Z,97054.16
2022-10-01T18:13:53.519Z,97056.06
2022-10-01T18:16:22.162Z,97052.66
2022-10-01T18:21:43.356Z,97056.91
2022-10-01T18:24:10.898Z,97057.41
2022-10-01T18:26:38.798Z,97056.38
2022-10-01T18:29:06.666Z,97060.16
2022-10-01T18:31:40.763Z,97058.53
2022-10-01T18:34:32.618Z,97067.59
2022-10-01T18:37:06.029Z,97063.31
2022-10-01T18:39:40.268Z,97059.84
2022-10-01T18:42:23.589Z,97065.38
2022-10-01T18:45:01.473Z,97061.22
2022-10-01T18:47:41.136Z,97061.50
2022-10-01T18:50:25.080Z,97060.63
2022-10-01T18:53:26.289Z,97083.81
2022-10-01T18:56:14.744Z,97084.56
2022-10-01T18:59:10.128Z,97088.00
2022-10-01T19:02:12.188Z,97098.72
2022-10-01T19:05:05.420Z,97100.03
2022-10-01T19:08:00.589Z,97087.06
2022-10-01T19:10:41.438Z,97102.31
2022-10-01T19:13:20.943Z,97104.16
2022-10-01T19:16:20.528Z,97102.81
2022-10-01T19:19:12.647Z,97097.53
2022-10-01T19:21:58.727Z,97096.72
2022-10-01T19:24:37.408Z,97098.56
2022-10-01T19:27:20.204Z,97102.38
2022-10-01T19:29:55.238Z,97100.44
2022-10-01T19:32:48.994Z,97107.91
2022-10-01T19:35:29.877Z,97103.38
2022-10-01T19:38:04.788Z,97115.94
2022-10-01T19:40:41.137Z,97116.44
2022-10-01T19:43:19.243Z,97127.06
2022-10-01T19:46:13.140Z,97134.69
2022-10-01T19:48:46.970Z,97128.47
2022-10-01T19:51:19.793Z,97144.47
2022-10-01T19:53:56.469Z,97145.47
2022-10-01T19:56:28.178Z,97144.59
2022-10-01T19:58:58.177Z,97136.59
2022-10-01T20:01:38.104Z,97147.81
2022-10-01T20:04:14.739Z,97153.31
2022-10-01T20:06:47.029Z,97167.22
2022-10-01T20:09:30.045Z,97173.59
2022-10-01T20:12:03.269Z,97176.28
2022-10-01T20:15:09.646Z,97179.97
2022-10-01T20:17:51.485Z,97189.03
2022-10-01T20:20:41.817Z,97185.78
2022-10-01T20:23:40.376Z,97186.75
2022-10-01T20:26:21.628Z,97191.56
2022-10-01T20:29:01.336Z,97193.16
2022-10-01T20:31:34.932Z,97195.25
2022-10-01T20:34:23.962Z,97204.88
2022-10-01T20:37:09.314Z,97212.88
2022-10-01T20:39:44.219Z,97218.44
2022-10-01T20:42:19.224Z,97218.69
2022-10-01T20:44:47.265Z,97217.63
2022-10-01T20:47:27.549Z,97230.38
2022-10-01T20:50:09.801Z,97226.91
2022-10-01T20:53:03.927Z,97231.44
2022-10-01T20:55:41.677Z,97246.72
2022-10-01T20:58:33.747Z,97247.91
2022-10-01T21:01:12.885Z,97248.69
2022-10-01T21:03:44.752Z,97246.63
2022-10-01T21:06:41.651Z,97250.81
2022-10-01T21:09:21.056Z,97264.50
2022-10-01T21:12:00.216Z,97258.31
2022-10-01T21:14:36.282Z,97266.22
2022-10-01T21:17:39.624Z,97265.91
2022-10-01T21:20:28.614Z,97268.00
2022-10-01T21:23:24.098Z,97265.91
2022-10-01T21:26:35.635Z,97285.03
2022-10-01T21:29:17.016Z,97282.28
2022-10-01T21:32:02.439Z,97294.81
2022-10-01T21:34:38.362Z,97299.66
2022-10-01T21:37:15.291Z,97310.31
2022-10-01T21:39:55.043Z,97316.34
2022-10-01T21:42:37.758Z,97325.41
2022-10-01T21:45:31.052Z,97319.97
2022-10-01T21:48:19.611Z,97333.53
2022-10-01T21:50:57.746Z,97334.81
2022-10-01T21:53:57.487Z,97335.28
2022-10-01T21:56:43.475Z,97339.56
2022-10-01T21:59:39.854Z,97346.28
2022-10-01T22:02:51.389Z,97346.53
2022-10-01T22:05:29.952Z,97354.84
2022-10-01T22:08:00.169Z,97354.28
2022-10-01T22:10:32.014Z,97358.66
2022-10-01T22:13:04.101Z,97367.38
2022-10-01T22:15:42.075Z,97367.13
2022-10-01T22:18:37.744Z,97378.56
2022-10-01T22:21:10.959Z,97393.44
2022-10-01T22:23:42.704Z,97390.75
2022-10-01T22:26:16.515Z,97392.03
2022-10-01T22:28:47.036Z,97395.50
2022-10-01T22:31:22.355Z,97400.84
2022-10-01T22:33:59.835Z,97410.47
2022-10-01T22:36:35.448Z,97414.16
2022-10-01T22:39:09.797Z,97411.16
2022-10-01T22:41:43.554Z,97421.34
2022-10-01T22:44:20.293Z,97422.63
2022-10-01T22:47:02.884Z,97435.25
2022-10-01T22:49:39.455Z,97434.13
2022-10-01T22:52:17.984Z,97431.09
2022-10-01T22:54:48.417Z,97437.81
2022-10-01T22:57:22.074Z,97440.31
2022-10-01T22:59:59.464Z,97439.06
2022-10-01T23:02:45.345Z,97445.22
2022-10-01T23:05:37.181Z,97450.31
2022-10-01T23:08:27.843Z,97457.25
2022-10-01T23:11:06.610Z,97459.44
2022-10-01T23:14:07.971Z,97456.13
2022-10-01T23:16:52.180Z,97463.88
2022-10-01T23:19:42.634Z,97469.44
2022-10-01T23:22:15.994Z,97469.31
2022-10-01T23:24:53.464Z,97473.38
2022-10-01T23:28:05.880Z,97472.56
2022-10-01T23:31:07.975Z,97478.47
2022-10-01T23:33:38.394Z,97480.88
2022-10-01T23:36:26.428Z,97485.41
2022-10-01T23:39:27.874Z,97486.22
2022-10-01T23:42:06.963Z,97495.13
2022-10-01T23:44:38.202Z,97508.09
2022-10-01T23:47:12.734Z,97505.19
2022-10-01T23:49:44.643Z,97501.59
2022-10-01T23:52:19.263Z,97511.56
2022-10-01T23:55:17.485Z,97516.66
2022-10-01T23:57:46.994Z,97526.16
